Time;durP1;ratioP1;P1;durP2;ratioP2;P2;SDS_P1;SDS_P2;PMS_P1;PMS_P2;Temp;Humidity;BMP_temperature;BMP_pressure;BME280_temperature;BME280_humidity;BME280_pressure;Samples;Min_cycle;Max_cycle;Signal;HPM_P1;HPM_P2
2022/03/21 00:02:10;;;;;;;27.23;18.05;;;;;;;5.48;57.20;101254.84;10598759;27;20588;-60
2022/03/21 00:07:12;;;;;;;29.35;18.52;;;;;;;5.39;57.20;101257.63;10596851;27;20541;-60
2022/03/21 00:12:14;;;;;;;25.30;17.38;;;;;;;5.33;57.71;101258.56;10597545;27;20057;-60
2022/03/21 00:17:15;;;;;;;23.17;16.63;;;;;;;5.36;57.69;101260.25;10597446;27;20043;-60
2022/03/21 00:22:17;;;;;;;25.45;17.23;;;;;;;5.31;57.44;101264.69;10595895;27;20043;-60
2022/03/21 00:27:19;;;;;;;29.85;18.45;;;;;;;5.13;57.71;101273.63;10596678;27;20063;-60
2022/03/21 00:32:21;;;;;;;25.67;17.98;;;;;;;5.07;57.74;101268.53;10596882;27;20059;-60
2022/03/21 00:37:23;;;;;;;23.05;17.92;;;;;;;4.98;57.88;101268.69;10595936;27;20406;-60
2022/03/21 00:42:26;;;;;;;24.20;17.27;;;;;;;4.93;57.62;101278.25;10595358;27;20054;-60
2022/03/21 00:47:28;;;;;;;25.45;16.98;;;;;;;4.77;58.24;101269.00;10595617;27;20050;-60
2022/03/21 00:52:30;;;;;;;25.23;17.63;;;;;;;4.80;58.09;101275.88;10595222;27;20317;-60
2022/03/21 00:57:34;;;;;;;27.95;18.45;;;;;;;4.83;57.84;101278.41;10593674;27;20057;-60
2022/03/21 01:02:36;;;;;;;26.90;19.45;;;;;;;4.74;57.75;101274.22;10594027;27;20521;-59
2022/03/21 01:07:40;;;;;;;26.58;18.77;;;;;;;4.67;58.06;101276.06;10594767;27;20054;-61
2022/03/21 01:12:43;;;;;;;26.95;18.13;;;;;;;4.59;58.09;101280.50;10594651;27;20047;-59
2022/03/21 01:17:45;;;;;;;29.45;19.77;;;;;;;4.49;58.44;101278.06;10571545;27;20493;-60
2022/03/21 01:22:48;;;;;;;26.60;18.80;;;;;;;4.40;58.48;101278.16;10593396;27;20122;-60
2022/03/21 01:27:50;;;;;;;27.00;18.63;;;;;;;4.34;58.38;101276.53;10592423;27;20552;-60
2022/03/21 01:32:52;;;;;;;25.60;18.35;;;;;;;4.33;58.06;101282.56;10594731;27;20112;-60
2022/03/21 01:37:54;;;;;;;29.45;18.92;;;;;;;4.33;58.33;101286.91;10593226;27;20043;-60
2022/03/21 01:42:56;;;;;;;24.67;16.85;;;;;;;4.29;58.27;101285.22;10593203;27;20047;-60
2022/03/21 01:47:57;;;;;;;25.33;17.85;;;;;;;4.24;58.31;101292.19;10575887;27;20263;-60
2022/03/21 01:58:21;;;;;;;26.35;19.60;;;;;;;4.04;58.26;101291.56;10593779;27;20629;-61
2022/03/21 02:03:24;;;;;;;26.48;18.98;;;;;;;3.88;58.71;101296.91;10593250;27;20704;-60
2022/03/21 02:08:26;;;;;;;23.27;17.63;;;;;;;3.76;59.00;101291.00;10592087;27;20065;-60
2022/03/21 02:13:28;;;;;;;25.67;17.73;;;;;;;3.74;59.04;101287.56;10591522;27;20051;-61
2022/03/21 02:18:32;;;;;;;22.25;17.42;;;;;;;3.73;59.05;101285.84;10574650;27;20050;-61
2022/03/21 02:23:41;;;;;;;23.58;17.35;;;;;;;3.58;59.22;101284.25;10592491;27;20039;-61
2022/03/21 02:28:46;;;;;;;26.40;18.20;;;;;;;3.48;59.13;101295.56;10591609;27;20223;-61
2022/03/21 02:33:48;;;;;;;25.70;18.52;;;;;;;3.50;59.46;101300.72;10591614;28;20051;-61
2022/03/21 02:38:51;;;;;;;30.23;20.27;;;;;;;3.56;59.00;101300.66;10590630;28;20075;-61
2022/03/21 02:43:58;;;;;;;27.00;19.33;;;;;;;3.49;59.05;101304.19;10591453;28;20046;-61
2022/03/21 02:48:59;;;;;;;28.58;19.30;;;;;;;3.44;59.19;101305.94;10592166;28;20511;-61
2022/03/21 02:54:01;;;;;;;30.83;18.90;;;;;;;3.41;59.26;101316.34;10590796;28;20248;-61
2022/03/21 02:59:03;;;;;;;28.98;20.20;;;;;;;3.25;59.39;101307.00;10591192;28;20177;-61
2022/03/21 03:04:05;;;;;;;28.67;18.52;;;;;;;3.20;59.71;101313.91;10597245;28;20138;-60
2022/03/21 03:09:07;;;;;;;29.77;19.15;;;;;;;3.19;59.44;101310.50;10598736;28;20049;-61
2022/03/21 03:14:09;;;;;;;24.02;18.08;;;;;;;3.07;59.38;101319.16;10599913;28;20130;-61
2022/03/21 03:19:11;;;;;;;25.90;17.52;;;;;;;3.10;59.49;101320.88;10601867;27;20137;-61
2022/03/21 03:24:13;;;;;;;28.13;18.90;;;;;;;3.08;59.07;101327.78;10606918;27;20039;-60
2022/03/21 03:29:15;;;;;;;27.30;18.85;;;;;;;2.98;59.40;101327.00;10607491;27;20550;-61
2022/03/21 03:34:17;;;;;;;25.60;18.02;;;;;;;2.99;59.20;101322.66;10606172;27;20057;-62
2022/03/21 03:39:19;;;;;;;25.33;17.33;;;;;;;3.04;59.37;101332.13;10606016;27;20043;-61
2022/03/21 03:44:23;;;;;;;27.45;18.30;;;;;;;3.00;59.31;101334.75;10606051;27;20058;-61
2022/03/21 03:49:25;;;;;;;26.20;18.20;;;;;;;2.93;59.63;101343.38;10605717;27;20475;-61
2022/03/21 03:54:27;;;;;;;25.75;18.48;;;;;;;2.90;59.37;101336.53;10605391;27;20047;-61
2022/03/21 03:59:28;;;;;;;23.30;17.73;;;;;;;2.87;59.68;101344.28;10606109;27;20146;-61
2022/03/21 04:04:30;;;;;;;27.33;18.95;;;;;;;2.75;59.57;101339.19;10599290;27;20587;-61
2022/03/21 04:09:32;;;;;;;24.75;18.45;;;;;;;2.73;59.61;101346.09;10579329;27;20047;-61
2022/03/21 04:14:34;;;;;;;24.42;18.05;;;;;;;2.70;59.76;101353.00;10598117;27;20086;-61
2022/03/21 04:19:35;;;;;;;27.45;19.75;;;;;;;2.70;59.35;101345.25;10596893;27;20047;-60
2022/03/21 04:24:37;;;;;;;26.40;19.40;;;;;;;2.51;59.67;101349.66;10597255;27;20051;-61
2022/03/21 04:29:39;;;;;;;25.50;18.67;;;;;;;2.44;59.76;101360.03;10597232;27;20709;-61
2022/03/21 04:34:41;;;;;;;24.60;18.65;;;;;;;2.45;59.84;101360.00;10595186;27;20047;-61
2022/03/21 04:39:42;;;;;;;28.77;18.17;;;;;;;2.33;59.72;101374.69;10597386;27;20057;-61
2022/03/21 04:44:48;;;;;;;24.50;17.80;;;;;;;2.29;59.96;101376.44;10596905;27;20070;-60
2022/03/21 04:49:50;;;;;;;24.60;18.42;;;;;;;2.24;60.11;101380.72;10594954;27;20047;-61
2022/03/21 04:54:52;;;;;;;25.48;19.30;;;;;;;1.98;59.90;101395.41;10564931;27;20180;-62
2022/03/21 04:59:54;;;;;;;29.85;19.30;;;;;;;2.02;60.30;101392.84;10589759;27;20043;-61
2022/03/21 05:04:56;;;;;;;27.48;18.75;;;;;;;1.93;60.39;101400.56;10585581;27;20047;-62
2022/03/21 05:09:58;;;;;;;28.75;19.52;;;;;;;1.92;60.26;101398.00;10591729;27;20268;-62
2022/03/21 05:15:00;;;;;;;25.42;18.20;;;;;;;1.92;60.11;101406.63;10590218;27;20153;-62
2022/03/21 05:20:08;;;;;;;26.73;18.02;;;;;;;1.81;60.42;101400.59;10595347;27;20047;-61
2022/03/21 05:35:57;;;;;;;30.23;20.73;;;;;;;1.78;60.52;101410.06;10593780;27;20078;-62
2022/03/21 05:41:00;;;;;;;26.33;19.85;;;;;;;1.82;60.60;101416.94;10589918;27;20483;-62
2022/03/21 05:46:03;;;;;;;28.27;18.95;;;;;;;1.92;60.52;101421.22;10576305;27;20141;-61
2022/03/21 05:51:06;;;;;;;23.42;17.35;;;;;;;2.05;60.35;101423.78;10576837;27;20050;-62
2022/03/21 05:56:08;;;;;;;29.00;20.13;;;;;;;2.20;59.94;101433.22;10592169;27;20141;-62
2022/03/21 06:01:15;;;;;;;25.23;18.48;;;;;;;2.22;59.80;101446.97;10588337;27;20047;-62
2022/03/21 06:06:17;;;;;;;29.25;18.80;;;;;;;2.28;59.72;101441.81;10592296;27;20051;-62
2022/03/21 06:11:19;;;;;;;26.50;19.02;;;;;;;2.32;59.63;101440.94;10568515;27;20190;-62
2022/03/21 06:16:21;;;;;;;27.05;18.88;;;;;;;2.32;59.75;101443.50;10593023;27;20039;-62
2022/03/21 06:21:23;;;;;;;28.13;18.73;;;;;;;2.49;59.55;101449.50;10590337;27;20047;-61
2022/03/21 06:26:25;;;;;;;28.98;19.75;;;;;;;2.74;59.17;101453.75;10586919;27;20138;-62
2022/03/21 06:31:27;;;;;;;28.35;18.52;;;;;;;2.81;58.89;101459.72;10593818;27;20528;-61
2022/03/21 06:36:30;;;;;;;27.98;19.35;;;;;;;2.97;58.71;101466.53;10591763;28;20682;-62
2022/03/21 06:41:32;;;;;;;26.45;18.95;;;;;;;3.05;58.57;101473.41;10591646;28;20092;-61
2022/03/21 06:46:33;;;;;;;27.00;18.45;;;;;;;3.23;58.24;101472.47;10591672;28;20047;-62
2022/03/21 06:51:35;;;;;;;26.80;18.70;;;;;;;3.41;58.28;101480.13;10593031;28;20066;-61
2022/03/21 06:56:37;;;;;;;25.05;18.77;;;;;;;3.50;57.95;101477.44;10598212;27;20129;-61
2022/03/21 07:01:38;;;;;;;25.45;16.65;;;;;;;3.75;58.06;101489.38;10601341;27;20409;-62
2022/03/21 07:06:40;;;;;;;23.35;17.70;;;;;;;4.14;57.24;101485.63;10600513;27;20179;-62
2022/03/21 07:11:43;;;;;;;24.42;17.50;;;;;;;4.32;57.06;101487.19;10599409;27;20088;-62
2022/03/21 07:16:47;;;;;;;22.15;17.05;;;;;;;4.57;56.79;101479.16;10581811;27;20058;-62
2022/03/21 07:21:49;;;;;;;26.70;18.00;;;;;;;5.03;56.05;101489.84;10600623;27;20058;-60
2022/03/21 07:26:50;;;;;;;25.90;17.40;;;;;;;5.48;55.24;101490.97;10601124;27;20138;-62
2022/03/21 07:31:52;;;;;;;24.42;17.88;;;;;;;5.90;53.75;101490.31;10599084;27;20452;-62
2022/03/21 07:36:54;;;;;;;22.75;17.35;;;;;;;6.20;52.90;101496.75;10600166;27;20051;-62
2022/03/21 07:42:00;;;;;;;27.42;16.42;;;;;;;6.35;51.44;101489.59;10601549;27;20130;-62
2022/03/21 07:47:17;;;;;;;24.60;16.65;;;;;;;6.89;51.05;101492.03;10599711;27;20048;-62
2022/03/21 07:52:20;;;;;;;22.05;14.75;;;;;;;7.22;48.17;101499.16;10599737;27;20051;-63
2022/03/21 07:57:23;;;;;;;26.23;15.82;;;;;;;7.73;47.46;101500.56;10600421;27;20039;-62
2022/03/21 08:02:27;;;;;;;20.23;14.40;;;;;;;8.15;46.65;101490.91;10598705;27;20096;-62
2022/03/21 08:07:29;;;;;;;19.67;14.52;;;;;;;8.63;44.85;101494.00;10597659;27;20047;-62
2022/03/21 08:12:30;;;;;;;25.52;15.35;;;;;;;9.11;43.04;101497.00;10598963;27;20043;-62
2022/03/21 08:17:33;;;;;;;20.95;14.70;;;;;;;9.07;42.60;101496.25;10598824;27;20538;-62
2022/03/21 08:22:35;;;;;;;28.00;17.75;;;;;;;8.97;42.50;101491.31;10597886;27;20053;-62
2022/03/21 08:27:37;;;;;;;21.35;15.32;;;;;;;9.31;42.06;101500.72;10597530;27;20126;-62
2022/03/21 08:32:39;;;;;;;21.70;14.90;;;;;;;9.82;41.67;101502.69;10597076;27;20287;-62
2022/03/21 08:37:41;;;;;;;22.77;14.85;;;;;;;10.30;40.49;101504.53;10597079;27;20494;-62
2022/03/21 08:42:43;;;;;;;19.42;14.40;;;;;;;10.29;39.41;101501.97;10597528;27;20088;-63
2022/03/21 08:47:47;;;;;;;23.27;14.88;;;;;;;10.41;39.08;101505.03;10582544;27;20051;-61
2022/03/21 08:52:50;;;;;;;20.17;13.73;;;;;;;10.30;38.96;101504.53;10589599;27;20469;-61
2022/03/21 08:57:52;;;;;;;18.77;13.85;;;;;;;10.73;38.12;101496.06;10593604;27;20039;-61
2022/03/21 09:02:55;;;;;;;20.15;14.20;;;;;;;10.87;37.86;101488.56;10586874;27;20090;-62
2022/03/21 09:07:57;;;;;;;19.60;14.00;;;;;;;10.98;37.66;101496.03;10590891;27;20469;-62
2022/03/21 09:12:59;;;;;;;21.13;14.80;;;;;;;11.13;36.93;101493.72;10564566;27;20490;-62
2022/03/21 09:18:02;;;;;;;18.40;14.10;;;;;;;11.21;36.42;101478.56;10592621;27;20550;-62
2022/03/21 09:23:04;;;;;;;22.42;14.07;;;;;;;11.52;36.38;101478.25;10590328;27;20051;-62
2022/03/21 09:28:06;;;;;;;21.50;14.20;;;;;;;11.70;35.83;101480.16;10591999;27;20096;-62
2022/03/21 09:33:09;;;;;;;21.98;14.13;;;;;;;11.61;36.07;101488.38;10585226;27;20543;-62
2022/03/21 09:38:11;;;;;;;17.88;13.27;;;;;;;11.74;35.80;101478.28;10592436;27;20128;-68
2022/03/21 09:43:13;;;;;;;19.70;12.68;;;;;;;11.99;35.06;101476.34;10584300;27;20051;-69
2022/03/21 09:48:17;;;;;;;18.60;13.23;;;;;;;12.34;34.93;101472.28;10591307;27;20082;-68
2022/03/21 09:53:21;;;;;;;17.98;13.38;;;;;;;12.13;34.46;101467.00;10590173;27;20070;-68
2022/03/21 09:58:22;;;;;;;18.77;12.93;;;;;;;12.45;33.63;101465.69;10588260;27;20518;-68
2022/03/21 10:03:24;;;;;;;19.17;12.63;;;;;;;12.69;33.77;101456.72;10572383;27;20671;-68
2022/03/21 10:08:28;;;;;;;19.23;12.68;;;;;;;13.06;33.48;101447.19;10591646;27;21258;-68
2022/03/21 10:13:36;;;;;;;19.80;12.90;;;;;;;12.68;32.09;101449.75;10587000;27;20154;-68
2022/03/21 10:18:39;;;;;;;18.63;12.60;;;;;;;12.90;33.26;101447.03;10590413;27;20461;-68
2022/03/21 10:23:44;;;;;;;21.65;12.65;;;;;;;13.32;33.11;101437.16;10591024;27;20430;-68
2022/03/21 10:28:46;;;;;;;21.33;13.45;;;;;;;13.23;32.67;101423.63;10580660;27;20043;-68
2022/03/21 10:33:59;;;;;;;17.88;12.95;;;;;;;13.44;31.50;101426.09;10573615;28;20417;-67
2022/03/21 10:39:08;;;;;;;19.33;13.48;;;;;;;13.70;32.08;101425.69;10583939;28;20074;-67
2022/03/21 10:44:10;;;;;;;18.65;13.07;;;;;;;13.87;32.28;101424.00;10591391;28;20062;-67
2022/03/21 10:49:12;;;;;;;21.17;13.85;;;;;;;13.63;32.27;101431.31;10591570;28;20130;-67
2022/03/21 10:54:43;;;;;;;19.20;14.10;;;;;;;13.53;32.07;101422.19;10572710;28;20043;-67
2022/03/21 10:59:45;;;;;;;17.67;13.13;;;;;;;13.47;32.42;101415.47;10588851;28;20487;-67
2022/03/21 11:04:48;;;;;;;17.33;13.40;;;;;;;13.50;32.44;101419.69;10591343;28;20166;-67
2022/03/21 11:09:50;;;;;;;20.27;13.52;;;;;;;13.65;32.45;101404.03;10589842;28;20057;-67
2022/03/21 11:14:51;;;;;;;20.50;13.60;;;;;;;13.57;32.46;101400.09;10590815;28;20130;-68
2022/03/21 11:19:54;;;;;;;20.75;14.52;;;;;;;13.82;32.68;101392.66;10589652;28;20133;-67
2022/03/21 11:25:04;;;;;;;18.98;13.40;;;;;;;14.08;32.60;101391.38;10587149;28;20485;-67
2022/03/21 11:30:23;;;;;;;17.83;13.13;;;;;;;14.37;32.94;101396.81;10591535;28;20123;-68
2022/03/21 11:35:28;;;;;;;20.95;14.45;;;;;;;14.66;32.95;101390.03;10587226;28;20058;-68
2022/03/21 11:40:35;;;;;;;18.95;13.05;;;;;;;14.82;31.77;101379.56;10589710;27;20051;-68
2022/03/21 11:45:37;;;;;;;18.55;13.70;;;;;;;14.68;33.11;101376.78;10598605;27;20143;-68
2022/03/21 11:50:39;;;;;;;21.00;13.52;;;;;;;14.72;32.16;101370.41;10589994;27;20049;-68
2022/03/21 11:55:44;;;;;;;20.95;14.35;;;;;;;14.90;32.88;101366.81;10597791;27;20491;-68
2022/03/21 12:01:13;;;;;;;17.20;13.63;;;;;;;15.03;31.94;101357.28;10594472;27;20113;-67
2022/03/21 12:06:30;;;;;;;20.45;14.43;;;;;;;15.02;31.73;101350.31;10597135;27;20123;-68
2022/03/21 12:11:38;;;;;;;20.95;13.95;;;;;;;15.21;30.80;101348.34;10596980;27;20051;-67
2022/03/21 12:16:41;;;;;;;19.55;13.93;;;;;;;15.37;32.05;101333.34;10576826;27;20043;-68
2022/03/21 12:21:44;;;;;;;19.65;14.10;;;;;;;15.39;31.36;101324.44;10593384;27;20516;-67
2022/03/21 12:26:53;;;;;;;20.15;14.32;;;;;;;15.58;30.48;101313.69;10595954;27;20483;-67
2022/03/21 12:32:26;;;;;;;21.92;14.13;;;;;;;15.66;29.99;101310.59;10596238;27;20051;-67
2022/03/21 12:37:31;;;;;;;20.00;13.32;;;;;;;15.89;32.13;101310.94;10587730;27;20047;-67
2022/03/21 12:42:33;;;;;;;19.27;12.77;;;;;;;16.21;31.16;101299.28;10595623;27;20065;-67
2022/03/21 12:47:36;;;;;;;17.05;13.00;;;;;;;16.09;30.55;101299.19;10575686;27;20054;-67
2022/03/21 12:52:37;;;;;;;18.05;13.20;;;;;;;16.17;30.77;101303.06;10591938;27;20737;-67
2022/03/21 12:57:59;;;;;;;18.08;13.00;;;;;;;16.30;30.83;101297.00;10561982;27;20137;-67
2022/03/21 13:03:08;;;;;;;22.25;13.00;;;;;;;16.54;29.88;101284.94;10592561;27;20051;-67
2022/03/21 13:13:43;;;;;;;19.10;12.13;;;;;;;16.89;30.60;101281.78;10594398;27;20047;-68
2022/03/21 13:18:45;;;;;;;16.73;12.10;;;;;;;16.91;30.74;101274.59;10559251;27;20399;-67
2022/03/21 13:23:49;;;;;;;18.80;12.60;;;;;;;16.81;30.56;101280.56;10587172;27;20050;-69
2022/03/21 13:28:52;;;;;;;18.90;11.57;;;;;;;16.91;30.48;101285.16;10592546;27;20126;-68
2022/03/21 13:33:58;;;;;;;19.60;11.55;;;;;;;16.95;30.28;101277.88;10593945;27;20100;-67
2022/03/21 13:39:23;;;;;;;19.52;11.18;;;;;;;17.00;29.86;101273.13;10574931;27;20055;-67
2022/03/21 13:44:34;;;;;;;20.63;11.88;;;;;;;17.17;29.32;101264.09;10572864;27;20055;-68
2022/03/21 13:49:49;;;;;;;16.48;10.82;;;;;;;17.24;29.86;101265.41;10594277;27;20047;-68
2022/03/21 13:54:54;;;;;;;13.90;10.35;;;;;;;17.20;29.84;101262.09;10567932;27;20058;-67
2022/03/21 14:00:10;;;;;;;15.10;10.40;;;;;;;17.30;29.21;101249.94;10591837;27;20092;-67
2022/03/21 14:05:42;;;;;;;15.35;10.40;;;;;;;17.46;29.00;101248.03;10589168;27;20410;-67
2022/03/21 14:10:52;;;;;;;14.93;10.10;;;;;;;17.72;29.95;101246.25;10568985;27;20054;-68
2022/03/21 14:15:59;;;;;;;14.85;9.68;;;;;;;17.74;31.03;101231.09;10590201;27;20043;-67
2022/03/21 14:21:02;;;;;;;17.60;9.40;;;;;;;17.80;30.24;101222.75;10572705;27;20051;-68
2022/03/21 14:31:24;;;;;;;12.82;8.85;;;;;;;17.74;29.90;101221.38;10590961;27;20403;-67
2022/03/21 14:36:26;;;;;;;11.10;7.47;;;;;;;17.82;30.32;101221.69;10592101;27;20087;-67
2022/03/21 14:41:27;;;;;;;13.88;7.95;;;;;;;17.73;29.73;101214.38;10591364;28;20047;-68
2022/03/21 14:46:29;;;;;;;13.18;7.95;;;;;;;17.77;29.51;101210.56;10592386;28;20073;-68
2022/03/21 14:51:34;;;;;;;15.40;7.55;;;;;;;17.77;30.08;101213.22;10586960;28;20059;-68
2022/03/21 14:56:35;;;;;;;13.63;7.20;;;;;;;17.89;30.37;101210.69;10566627;28;20096;-68
2022/03/21 15:01:37;;;;;;;11.95;7.25;;;;;;;17.89;29.67;101206.25;10591993;28;20127;-69
2022/03/21 15:06:39;;;;;;;15.88;7.05;;;;;;;17.87;30.05;101212.59;10588589;28;20051;-69
2022/03/21 15:11:41;;;;;;;16.23;7.93;;;;;;;18.08;29.00;101205.75;10583619;28;20065;-69
2022/03/21 15:16:43;;;;;;;13.73;7.15;;;;;;;18.01;29.88;101201.88;10589844;27;20039;-69
2022/03/21 15:21:47;;;;;;;12.52;7.35;;;;;;;17.89;30.00;101194.78;10596739;27;20086;-68
2022/03/21 15:26:50;;;;;;;14.45;7.60;;;;;;;17.94;29.45;101197.94;10580934;27;20057;-68
2022/03/21 15:31:51;;;;;;;12.45;7.40;;;;;;;17.97;29.42;101195.09;10596765;27;20042;-68
2022/03/21 15:42:14;;;;;;;11.88;6.93;;;;;;;17.96;29.38;101193.41;10598148;27;20043;-67
2022/03/21 15:47:16;;;;;;;13.05;7.22;;;;;;;17.91;29.46;101190.25;10577834;27;20057;-68
2022/03/21 15:52:18;;;;;;;12.98;7.72;;;;;;;17.95;29.37;101197.00;10598537;27;20080;-68
2022/03/21 15:57:19;;;;;;;12.98;7.57;;;;;;;17.72;29.03;101194.19;10597476;27;20051;-69
2022/03/21 16:02:21;;;;;;;15.48;7.25;;;;;;;17.61;29.34;101196.69;10597887;27;20126;-68
2022/03/21 16:07:23;;;;;;;12.05;6.85;;;;;;;17.63;29.63;101191.31;10594093;27;20094;-67
2022/03/21 16:12:25;;;;;;;11.32;7.38;;;;;;;17.56;29.35;101193.53;10593556;27;20443;-68
2022/03/21 16:17:27;;;;;;;12.57;6.95;;;;;;;17.38;29.64;101194.81;10577322;27;20075;-68
2022/03/21 16:22:28;;;;;;;16.92;7.00;;;;;;;17.24;29.66;101200.13;10567781;27;20134;-69
2022/03/21 16:27:30;;;;;;;13.10;7.03;;;;;;;17.19;30.04;101209.31;10594966;27;20047;-68
2022/03/21 16:32:32;;;;;;;14.50;6.60;;;;;;;17.08;30.59;101202.09;10596826;27;20061;-67
2022/03/21 16:37:35;;;;;;;12.73;6.57;;;;;;;16.94;30.24;101205.66;10587375;27;20224;-66
2022/03/21 16:42:37;;;;;;;10.73;6.70;;;;;;;16.89;30.68;101206.94;10592198;27;20075;-69
2022/03/21 16:47:39;;;;;;;11.95;6.22;;;;;;;16.68;31.21;101208.31;10569030;27;20855;-68
2022/03/21 16:52:45;;;;;;;11.75;6.60;;;;;;;16.51;31.15;101216.50;10592950;27;20043;-68
2022/03/21 16:57:47;;;;;;;14.68;6.70;;;;;;;16.31;31.38;101216.84;10585734;27;20047;-68
2022/03/21 17:02:49;;;;;;;13.70;7.10;;;;;;;16.23;31.50;101220.84;10582497;27;20035;-69
2022/03/21 17:07:55;;;;;;;17.40;7.68;;;;;;;16.10;31.75;101225.19;10589234;27;20094;-68
2022/03/21 17:12:57;;;;;;;13.48;8.00;;;;;;;15.91;31.97;101222.00;10593132;27;20061;-67
2022/03/21 17:23:19;;;;;;;13.27;7.40;;;;;;;15.37;32.58;101230.53;10594049;27;20154;-68
2022/03/21 17:28:21;;;;;;;12.32;7.47;;;;;;;15.13;33.00;101224.06;10591365;27;20047;-69
2022/03/21 17:33:23;;;;;;;10.82;7.50;;;;;;;14.81;33.39;101241.75;10592367;27;20047;-68
2022/03/21 17:38:31;;;;;;;14.45;7.47;;;;;;;14.52;33.85;101243.38;10592132;27;20084;-68
2022/03/21 17:43:34;;;;;;;12.73;7.90;;;;;;;14.23;34.22;101248.47;10585355;27;20085;-68
2022/03/21 17:48:36;;;;;;;14.40;8.55;;;;;;;13.97;34.28;101257.75;10590176;27;20051;-68
2022/03/21 17:53:38;;;;;;;17.85;10.48;;;;;;;13.81;34.34;101264.75;10592449;27;20493;-68
2022/03/21 17:58:46;;;;;;;18.98;11.68;;;;;;;13.66;34.44;101268.16;10577775;27;20088;-68
2022/03/21 18:03:48;;;;;;;24.20;14.00;;;;;;;13.44;34.69;101276.31;10584788;27;20119;-68
2022/03/21 18:08:51;;;;;;;22.02;13.90;;;;;;;13.31;34.59;101292.75;10587589;27;20047;-68
2022/03/21 18:13:55;;;;;;;19.42;13.07;;;;;;;13.17;34.36;101288.13;10572298;27;20482;-68
2022/03/21 18:19:43;;;;;;;24.08;14.93;;;;;;;13.02;34.40;101301.19;10589109;27;20043;-69
2022/03/21 18:24:20;;;;;;;20.73;13.43;;;;;;;12.85;34.42;101305.47;10587084;27;20084;-68
2022/03/21 18:29:23;;;;;;;22.83;14.40;;;;;;;12.62;35.01;101308.31;10580017;27;20143;-68
2022/03/21 18:34:25;;;;;;;20.15;13.02;;;;;;;12.54;35.15;101313.06;10571833;27;20410;-68
2022/03/21 18:39:27;;;;;;;22.77;13.10;;;;;;;12.47;35.25;101318.66;10589238;28;20104;-68
2022/03/21 18:44:35;;;;;;;19.75;14.55;;;;;;;12.30;36.08;101321.19;10590658;28;20047;-68
2022/03/21 18:49:37;;;;;;;26.67;14.82;;;;;;;12.18;36.24;101326.94;10594463;27;20055;-68
2022/03/21 18:54:40;;;;;;;22.92;15.27;;;;;;;12.10;36.23;101336.00;10598910;27;20498;-68
2022/03/21 18:59:42;;;;;;;26.52;15.75;;;;;;;12.00;36.55;101336.47;10599517;27;20182;-68
2022/03/21 19:04:44;;;;;;;25.50;15.27;;;;;;;11.91;36.63;101347.34;10599301;27;20131;-68
2022/03/21 19:09:46;;;;;;;25.50;16.00;;;;;;;11.68;37.45;101356.19;10578951;27;20514;-68
2022/03/21 19:14:48;;;;;;;20.23;14.70;;;;;;;11.51;37.99;101349.94;10600074;27;20047;-68
2022/03/21 19:19:52;;;;;;;25.38;16.02;;;;;;;11.34;38.94;101357.66;10579756;27;20047;-68
2022/03/21 19:24:55;;;;;;;28.92;17.73;;;;;;;11.13;38.90;101364.59;10599832;27;20418;-69
2022/03/21 19:29:57;;;;;;;22.70;16.55;;;;;;;11.01;38.47;101368.50;10598808;27;20055;-69
2022/03/21 19:34:59;;;;;;;25.50;17.58;;;;;;;10.96;39.38;101373.06;10598784;27;20293;-69
2022/03/21 19:40:00;;;;;;;26.10;16.98;;;;;;;10.80;40.12;101377.19;10579047;27;20095;-70
2022/03/21 19:45:04;;;;;;;27.20;18.13;;;;;;;10.76;39.92;101383.44;10596815;27;20521;-63
2022/03/21 19:50:06;;;;;;;31.35;15.90;;;;;;;10.74;40.20;101382.66;10597447;27;20753;-63
2022/03/21 19:55:17;;;;;;;23.88;15.82;;;;;;;10.66;40.50;101389.06;10598812;27;20047;-63
2022/03/21 20:00:21;;;;;;;23.33;16.83;;;;;;;10.57;40.28;101390.25;10589361;27;20047;-64
2022/03/21 20:05:23;;;;;;;26.67;16.88;;;;;;;10.45;40.65;101407.25;10597214;27;20595;-63
2022/03/21 20:10:26;;;;;;;28.23;17.27;;;;;;;10.34;41.65;101398.06;10593716;27;20050;-63
2022/03/21 20:15:29;;;;;;;29.10;17.77;;;;;;;10.23;42.40;101400.22;10596128;27;20051;-63
2022/03/21 20:20:31;;;;;;;23.85;16.42;;;;;;;10.10;42.72;101398.94;10592623;27;20070;-64
2022/03/21 20:25:33;;;;;;;24.08;17.63;;;;;;;10.04;43.06;101399.13;10595389;27;20144;-63
2022/03/21 20:30:35;;;;;;;31.13;18.77;;;;;;;9.96;42.79;101411.63;10597597;27;20300;-63
2022/03/21 20:35:37;;;;;;;26.58;19.23;;;;;;;9.88;42.43;101406.66;10598432;27;20414;-64
2022/03/21 20:40:39;;;;;;;28.67;20.67;;;;;;;9.77;41.85;101407.94;10597887;27;20534;-64
2022/03/21 20:45:41;;;;;;;30.05;21.80;;;;;;;9.58;42.75;101411.06;10596217;27;20051;-64
2022/03/21 20:50:44;;;;;;;32.67;21.08;;;;;;;9.48;43.26;101411.44;10596018;27;20304;-63
2022/03/21 20:55:45;;;;;;;31.55;20.15;;;;;;;9.37;44.07;101411.78;10594499;27;20487;-62
2022/03/21 21:00:47;;;;;;;34.03;21.83;;;;;;;9.18;44.94;101417.63;10595273;27;20079;-62
2022/03/21 21:05:49;;;;;;;29.65;19.00;;;;;;;8.96;44.97;101416.53;10595447;27;20090;-62
2022/03/21 21:10:50;;;;;;;28.70;19.13;;;;;;;8.96;45.29;101413.91;10594494;27;20055;-62
2022/03/21 21:15:54;;;;;;;33.13;20.17;;;;;;;8.92;45.33;101420.13;10593332;27;20566;-63
2022/03/21 21:20:56;;;;;;;28.80;18.75;;;;;;;8.90;45.07;101421.94;10594479;27;20100;-62
2022/03/21 21:25:58;;;;;;;27.23;18.00;;;;;;;8.86;45.42;101429.00;10575400;27;20071;-62
2022/03/21 21:31:01;;;;;;;28.65;17.73;;;;;;;8.75;45.33;101436.28;10594543;27;20414;-62
2022/03/21 21:36:04;;;;;;;32.83;19.50;;;;;;;8.77;45.29;101431.88;10564707;27;20051;-62
2022/03/21 21:41:06;;;;;;;30.80;19.65;;;;;;;8.67;45.48;101435.63;10575540;27;20395;-62
2022/03/21 21:46:08;;;;;;;28.75;19.38;;;;;;;8.60;45.80;101437.56;10591270;27;20055;-63
2022/03/21 21:51:10;;;;;;;33.10;19.55;;;;;;;8.58;45.90;101435.91;10565317;27;21144;-62
2022/03/21 21:56:12;;;;;;;29.48;19.45;;;;;;;8.53;46.11;101436.03;10593331;27;20518;-62
2022/03/21 22:01:14;;;;;;;30.25;19.95;;;;;;;8.47;46.28;101424.91;10592951;27;20549;-62
2022/03/21 22:06:19;;;;;;;29.58;20.63;;;;;;;8.40;46.54;101436.41;10574300;27;20062;-61
2022/03/21 22:11:20;;;;;;;27.77;19.98;;;;;;;8.32;46.59;101431.41;10593173;27;20162;-61
2022/03/21 22:16:22;;;;;;;27.05;20.23;;;;;;;8.24;47.09;101441.16;10592596;27;20131;-61
2022/03/21 22:21:24;;;;;;;29.38;20.35;;;;;;;8.20;47.16;101431.69;10591526;27;20130;-61
2022/03/21 22:26:26;;;;;;;31.27;20.63;;;;;;;8.13;47.20;101437.97;10574628;27;20086;-62
2022/03/21 22:31:28;;;;;;;30.80;21.08;;;;;;;8.06;47.28;101438.16;10590761;27;20086;-61
2022/03/21 22:36:31;;;;;;;33.63;22.85;;;;;;;7.95;46.94;101441.91;10591510;27;20466;-61
2022/03/21 22:47:11;;;;;;;32.83;23.38;;;;;;;7.63;47.78;101449.59;10591582;28;20046;-61
2022/03/21 22:52:15;;;;;;;32.13;22.30;;;;;;;7.53;48.13;101449.88;10567483;28;20483;-61
2022/03/21 22:57:18;;;;;;;33.20;22.92;;;;;;;7.49;48.23;101445.63;10592741;28;20044;-60
2022/03/21 23:02:21;;;;;;;33.17;22.77;;;;;;;7.44;48.65;101447.47;10591629;28;20047;-62
2022/03/21 23:07:23;;;;;;;34.95;22.17;;;;;;;7.39;48.78;101450.19;10573033;28;20053;-62
2022/03/21 23:12:25;;;;;;;34.15;23.73;;;;;;;7.35;48.77;101443.34;10592151;28;20560;-61
2022/03/21 23:17:26;;;;;;;29.55;20.23;;;;;;;7.27;49.16;101453.06;10573486;28;20356;-62
2022/03/21 23:22:28;;;;;;;33.42;21.95;;;;;;;7.18;49.44;101454.09;10590534;28;20053;-62
2022/03/21 23:27:30;;;;;;;33.83;21.98;;;;;;;7.07;49.63;101447.44;10586738;28;20879;-62
2022/03/21 23:32:33;;;;;;;32.97;22.25;;;;;;;7.01;49.82;101451.03;10585286;28;20162;-62
2022/03/21 23:37:35;;;;;;;31.70;20.40;;;;;;;6.97;49.95;101451.13;10592457;27;20126;-61